Yankton, SD

08:30 CDT le 31 juillet 2014 (GMT -0500)
Gurney Municipal (KYKN) Alt. 1306 ft | 42.92 °N, 97.39 °W | Change Station

Current weather conditions updated 15 minutes ago

Overcast
Couvert
61 ° F
Paraît 61 ° F
N
10
Vent Variable Vent de Nord

Aujourd’hui il est prévu de faire plus chaud qu’hier.

Aujourd'hui
Haut(e) -- | Bas -- ° F
--% Risque de précip.
Hier
Haut(e) -- | Bas -- ° F
Precip. -- pouce
6:19 AM 8:51 PM
Lune montante, 18% visible
Pression 30.09 pouce
Visibilité 10.0 Miles terrestres
Nuages Couvert 7000 ft
Point de rosée 59 ° F
Humidité 94%
Précipitations 0.14 pouce
Profondeur de la couche neigeuse Non disponible.
UV 0 sur 12
Pollen 6.40 sur 12
Qualité de l'air Non disponible.
Flu Activity Non disponible.
METAR KYKN 311315Z AUTO 36009KT 10SM OVC070 16/15 A3009 RMK AO1

More Conditions Fewer Conditions

Pression 30.09 pouce
Visibilité 10.0 Miles terrestres
Nuages Couvert 7000 ft
Point de rosée 59 ° F
Humidité 94%
Précipitations 0.14 pouce
Profondeur de la couche neigeuse Non disponible.
UV 0 sur 12
Pollen 6.40 sur 12
Qualité de l'air Non disponible.
Flu Activity Non disponible.
METAR KYKN 311315Z AUTO 36009KT 10SM OVC070 16/15 A3009 RMK AO1

More Conditions Fewer Conditions

10-Day Weather Forecast

Almanac

Astronomie

Jul. 31, 2014 Lever Coucher
Temps réel 06:19 CDT 20:51 CDT
Crépuscule civil 05:47 CDT 21:23 CDT
Crépuscule nautique 05:07 CDT 22:03 CDT
Crépuscule astronomique 04:21 CDT 22:48 CDT
Lune 10:56 CDT 22:56 CDT
Durée de lumière visible 15h 36m
Longueur du jour
14h 31m
Tomorrow will be 2m 12s shorter.
Lune montante, 18% of the Moon is Illuminated
Aujourd'hui
Lune montante
août 3
Premier quartier
août 10
Pleine lune
août 17
Dernier quartier
août 25
Nouveau

Extrêmes aujourd'hui

State Highs State Lows

Community

WunderPhotos

Upload Photos

1,739,324 Photos téléchargées !

WunderBlogs® & News

Nearby

Épaisseur de neige

Station Depth Altitude
Blind Park 0 in 6890 ft

Activité sismique

Ville Distance Mag. Time & Date
No recent earthquake activity has been reported nearby.
Minimum magnitude displayed is 2.5.

Températures des eaux côtières

Lieu Température
Aucun rapport de station

Stations météo à proximité

Emplacement de la station Température Point de rosée Humidité Vent Precip. Alt. Mise à jour Type
APRSWXNET Yankton SD US, Utica, SD 65 ° F 61 ° F 86% Ouest  à  0 mph 0.00 pouce / hr 1495 ft 6:25 AM CDT MADIS
Volin, Volin, SD 61.0 ° F 60 ° F 96% NO  à  3.0 mph 0.12 pouce / hr 1240 ft 8:30 AM CDT Rapid Fire (temps réel)
Tabor - Bares, Tabor, SD 65.7 ° F 61 ° F 85% NE  à  2.9 mph 0.00 pouce / hr 1355 ft 8:30 AM CDT Rapid Fire (temps réel)
Scotland, SD, Scotland, SD 62.4 ° F 61 ° F 94% Est  à  0.0 mph 0.03 pouce / hr 1362 ft 8:26 AM CDT Normal

Show More Stations Show Fewer Stations